createdAt,value
2023-04-18T00:01:38.936Z,6.61
2023-04-18T00:04:06.649Z,6.59
2023-04-18T00:06:35.920Z,6.57
2023-04-18T00:09:03.782Z,6.55
2023-04-18T00:11:31.395Z,6.54
2023-04-18T00:13:59.193Z,6.53
2023-04-18T00:16:28.341Z,6.52
2023-04-18T00:18:57.060Z,6.51
2023-04-18T00:21:25.525Z,6.50
2023-04-18T00:23:52.903Z,6.51
2023-04-18T00:26:20.311Z,6.50
2023-04-18T00:28:48.120Z,6.50
2023-04-18T00:31:15.813Z,6.50
2023-04-18T00:33:43.193Z,6.50
2023-04-18T00:36:10.597Z,6.50
2023-04-18T00:38:38.577Z,6.50
2023-04-18T00:41:07.907Z,6.50
2023-04-18T00:43:35.593Z,6.49
2023-04-18T00:46:03.259Z,6.49
2023-04-18T00:48:31.022Z,6.47
2023-04-18T00:51:00.421Z,6.46
2023-04-18T00:53:28.765Z,6.43
2023-04-18T00:55:56.241Z,6.42
2023-04-18T00:58:25.078Z,6.40
2023-04-18T01:00:53.721Z,6.37
2023-04-18T01:03:22.558Z,6.34
2023-04-18T01:05:50.342Z,6.30
2023-04-18T01:08:18.910Z,6.28
2023-04-18T01:10:46.264Z,6.25
2023-04-18T01:13:16.924Z,6.23
2023-04-18T01:15:45.102Z,6.19
2023-04-18T01:18:13.122Z,6.16
2023-04-18T01:20:42.367Z,6.14
2023-04-18T01:23:12.591Z,6.12
2023-04-18T01:25:40.486Z,6.11
2023-04-18T01:28:08.336Z,6.08
2023-04-18T01:30:35.727Z,6.05
2023-04-18T01:33:03.753Z,6.02
2023-04-18T01:35:31.886Z,5.99
2023-04-18T01:37:59.391Z,5.96
2023-04-18T01:40:29.927Z,5.94
2023-04-18T01:42:57.322Z,5.91
2023-04-18T01:45:24.700Z,5.90
2023-04-18T01:47:52.136Z,5.89
2023-04-18T01:50:19.914Z,5.86
2023-04-18T01:52:47.999Z,5.85
2023-04-18T01:55:17.177Z,5.84
2023-04-18T01:57:44.802Z,5.83
2023-04-18T02:00:12.443Z,5.82
2023-04-18T02:02:43.289Z,5.82
2023-04-18T02:05:11.168Z,5.81
2023-04-18T02:07:40.728Z,5.80
2023-04-18T02:10:08.662Z,5.80
2023-04-18T02:12:36.271Z,5.81
2023-04-18T02:15:03.740Z,5.82
2023-04-18T02:17:31.445Z,5.83
2023-04-18T02:19:58.728Z,5.84
2023-04-18T02:22:25.980Z,5.86
2023-04-18T02:24:53.959Z,5.86
2023-04-18T02:27:21.308Z,5.87
2023-04-18T02:29:48.602Z,5.86
2023-04-18T02:32:15.857Z,5.86
2023-04-18T02:34:45.140Z,5.85
2023-04-18T02:37:12.466Z,5.84
2023-04-18T02:39:40.669Z,5.83
2023-04-18T02:42:07.976Z,5.82
2023-04-18T02:44:35.321Z,5.81
2023-04-18T02:47:02.630Z,5.79
2023-04-18T02:49:30.428Z,5.78
2023-04-18T02:51:58.128Z,5.77
2023-04-18T02:54:25.538Z,5.76
2023-04-18T02:56:56.949Z,5.75
2023-04-18T02:59:38.799Z,5.74
2023-04-18T03:02:06.590Z,5.73
2023-04-18T03:04:35.628Z,5.73
2023-04-18T03:07:05.735Z,5.73
2023-04-18T03:09:36.495Z,5.73
2023-04-18T03:12:08.195Z,5.72
2023-04-18T03:14:36.036Z,5.72
2023-04-18T03:17:04.009Z,5.72
2023-04-18T03:19:36.656Z,5.72
2023-04-18T03:22:07.097Z,5.71
2023-04-18T03:24:38.775Z,5.72
2023-04-18T03:27:06.785Z,5.72
2023-04-18T03:29:34.624Z,5.73
2023-04-18T03:32:03.840Z,5.74
2023-04-18T03:34:31.239Z,5.75
2023-04-18T03:36:59.373Z,5.76
2023-04-18T03:39:27.738Z,5.78
2023-04-18T03:41:55.197Z,5.81
2023-04-18T03:44:22.954Z,5.85
2023-04-18T03:46:50.981Z,5.88
2023-04-18T03:49:18.576Z,5.94
2023-04-18T03:51:49.471Z,5.98
2023-04-18T03:54:16.997Z,6.05
2023-04-18T03:56:44.726Z,6.11
2023-04-18T03:59:12.786Z,6.17
2023-04-18T04:01:41.311Z,6.22
2023-04-18T04:04:13.613Z,6.27
2023-04-18T04:06:42.091Z,6.31
2023-04-18T04:09:09.533Z,6.34
2023-04-18T04:11:36.959Z,6.39
2023-04-18T04:14:04.763Z,6.43
2023-04-18T04:16:37.137Z,6.47
2023-04-18T04:19:04.838Z,6.52
2023-04-18T04:21:38.654Z,6.60
2023-04-18T04:24:07.113Z,6.70
2023-04-18T04:26:42.377Z,6.84
2023-04-18T04:29:18.879Z,6.99
2023-04-18T04:31:47.384Z,7.15
2023-04-18T04:34:18.721Z,7.30
2023-04-18T04:36:46.563Z,7.44
2023-04-18T04:39:19.848Z,7.58
2023-04-18T04:42:04.256Z,7.72
2023-04-18T04:44:41.291Z,7.85
2023-04-18T04:47:09.299Z,8.01
2023-04-18T04:49:37.323Z,8.16
2023-04-18T04:52:04.649Z,8.34
2023-04-18T04:54:32.926Z,8.55
2023-04-18T04:57:01.892Z,8.82
2023-04-18T04:59:29.374Z,9.02
2023-04-18T05:01:57.464Z,9.18
2023-04-18T05:04:25.649Z,9.32
2023-04-18T05:06:53.726Z,9.38
2023-04-18T05:09:21.338Z,9.40
2023-04-18T05:11:49.408Z,9.43
2023-04-18T05:14:17.434Z,9.48
2023-04-18T05:16:45.233Z,9.55
2023-04-18T05:19:12.594Z,9.64
2023-04-18T05:21:41.055Z,9.71
2023-04-18T05:24:08.658Z,9.79
2023-04-18T05:26:36.899Z,9.88
2023-04-18T05:29:04.228Z,9.96
2023-04-18T05:31:31.976Z,10.08
2023-04-18T05:33:59.420Z,10.19
2023-04-18T05:36:26.628Z,10.29
2023-04-18T05:38:54.188Z,10.37
2023-04-18T05:41:21.394Z,10.36
2023-04-18T05:44:01.928Z,10.37
2023-04-18T05:46:32.765Z,10.42
2023-04-18T05:48:59.980Z,10.54
2023-04-18T05:51:28.213Z,10.64
2023-04-18T05:53:55.709Z,10.71
2023-04-18T05:56:23.028Z,10.88
2023-04-18T05:58:51.025Z,11.12
2023-04-18T06:01:18.515Z,11.33
2023-04-18T06:03:46.108Z,11.48
2023-04-18T06:06:14.280Z,11.48
2023-04-18T06:08:41.991Z,11.49
2023-04-18T06:11:09.281Z,11.49
2023-04-18T06:13:37.101Z,11.42
2023-04-18T06:16:05.667Z,11.33
2023-04-18T06:18:33.277Z,11.28
2023-04-18T06:21:00.593Z,11.24
2023-04-18T06:23:28.447Z,11.26
2023-04-18T06:25:56.878Z,11.31
2023-04-18T06:28:25.869Z,11.36
2023-04-18T06:30:53.177Z,11.37
2023-04-18T06:33:20.973Z,11.35
2023-04-18T06:35:48.440Z,11.34
2023-04-18T06:38:15.994Z,11.32
2023-04-18T06:40:43.704Z,11.24
2023-04-18T06:43:10.987Z,11.19
2023-04-18T06:45:40.161Z,11.15
2023-04-18T06:48:10.450Z,11.13
2023-04-18T06:50:38.218Z,11.09
2023-04-18T06:53:05.818Z,11.05
2023-04-18T06:55:33.051Z,11.03
2023-04-18T06:58:00.431Z,10.99
2023-04-18T07:00:30.633Z,10.96
2023-04-18T07:02:58.334Z,10.98
2023-04-18T07:05:26.029Z,11.04
2023-04-18T07:07:53.721Z,11.10
2023-04-18T07:10:21.617Z,11.17
2023-04-18T07:12:48.961Z,11.27
2023-04-18T07:15:16.497Z,11.35
2023-04-18T07:17:43.953Z,11.49
2023-04-18T07:20:13.021Z,11.63
2023-04-18T07:22:41.606Z,11.78
2023-04-18T07:25:09.153Z,11.90
2023-04-18T07:27:36.679Z,12.00
2023-04-18T07:30:04.186Z,12.06
2023-04-18T07:32:31.735Z,12.11
2023-04-18T07:34:58.947Z,12.14
2023-04-18T07:37:26.295Z,12.20
2023-04-18T07:39:53.855Z,12.30
2023-04-18T07:42:21.142Z,12.46
2023-04-18T07:44:50.117Z,12.63
2023-04-18T07:47:22.176Z,12.81
2023-04-18T07:49:50.437Z,12.99
2023-04-18T07:52:17.973Z,13.16
2023-04-18T07:54:45.414Z,13.31
2023-04-18T07:57:12.773Z,13.49
2023-04-18T07:59:40.674Z,13.74
2023-04-18T08:02:08.057Z,13.99
2023-04-18T08:04:35.454Z,14.14
2023-04-18T08:07:02.916Z,14.26
2023-04-18T08:09:30.493Z,14.33
2023-04-18T08:11:59.008Z,14.37
2023-04-18T08:14:26.347Z,14.33
2023-04-18T08:16:54.062Z,14.20
2023-04-18T08:19:21.399Z,14.11
2023-04-18T08:21:50.129Z,14.02
2023-04-18T08:24:17.646Z,13.93
2023-04-18T08:26:44.925Z,13.88
2023-04-18T08:29:12.742Z,13.88
2023-04-18T08:31:40.570Z,13.88
2023-04-18T08:34:07.912Z,13.89
2023-04-18T08:36:35.587Z,13.98
2023-04-18T08:39:03.178Z,14.02
2023-04-18T08:41:30.884Z,14.04
2023-04-18T08:43:58.301Z,14.13
2023-04-18T08:46:26.140Z,14.17
2023-04-18T08:48:53.615Z,14.22
2023-04-18T08:51:21.524Z,14.29
2023-04-18T08:53:50.327Z,14.36
2023-04-18T08:56:17.644Z,14.36
2023-04-18T08:58:45.030Z,14.33
2023-04-18T09:01:13.229Z,14.29
2023-04-18T09:03:41.459Z,14.24
2023-04-18T09:06:09.590Z,14.17
2023-04-18T09:08:37.928Z,14.07
2023-04-18T09:11:24.210Z,13.93
2023-04-18T09:13:52.913Z,13.80
2023-04-18T09:16:22.594Z,13.67
2023-04-18T09:19:10.679Z,13.52
2023-04-18T09:21:39.105Z,13.38
2023-04-18T09:24:20.919Z,13.27
2023-04-18T09:26:49.779Z,13.13
2023-04-18T09:29:18.311Z,13.05
2023-04-18T09:32:01.663Z,13.02
2023-04-18T09:34:29.347Z,12.98
2023-04-18T09:37:12.111Z,12.97
2023-04-18T09:39:41.895Z,12.99
2023-04-18T09:42:10.438Z,13.04
2023-04-18T09:44:38.649Z,13.07
2023-04-18T09:47:07.567Z,13.11
2023-04-18T09:49:34.989Z,13.20
2023-04-18T09:52:02.325Z,13.34
2023-04-18T09:54:30.017Z,13.56
2023-04-18T09:56:58.643Z,13.73
2023-04-18T09:59:33.100Z,13.83
2023-04-18T10:02:02.766Z,13.88
2023-04-18T10:04:30.453Z,13.88
2023-04-18T10:06:58.327Z,13.89
2023-04-18T10:09:25.890Z,13.87
2023-04-18T10:11:53.363Z,13.90
2023-04-18T10:14:20.958Z,13.98
2023-04-18T10:16:50.010Z,14.04
2023-04-18T10:19:25.534Z,14.08
2023-04-18T10:21:53.497Z,14.08
2023-04-18T10:24:50.010Z,14.08
2023-04-18T10:27:18.059Z,14.08
2023-04-18T10:29:52.522Z,14.07
2023-04-18T10:32:22.158Z,14.07
2023-04-18T10:34:50.216Z,14.09
2023-04-18T10:37:18.624Z,14.09
2023-04-18T10:39:58.068Z,14.12
2023-04-18T10:42:44.707Z,14.18
2023-04-18T10:45:24.516Z,14.15
2023-04-18T10:48:12.173Z,14.12
2023-04-18T10:50:58.462Z,14.10
2023-04-18T10:53:25.835Z,14.05
2023-04-18T10:55:53.183Z,13.99
2023-04-18T10:58:20.966Z,13.96
2023-04-18T11:00:48.244Z,13.95
2023-04-18T11:03:15.665Z,13.96
2023-04-18T11:05:43.176Z,14.00
2023-04-18T11:08:23.662Z,14.00
2023-04-18T11:10:57.573Z,14.01
2023-04-18T11:13:25.030Z,14.03
2023-04-18T11:15:52.349Z,14.04
2023-04-18T11:18:20.051Z,14.04
2023-04-18T11:20:49.375Z,14.04
2023-04-18T11:23:21.263Z,14.00
2023-04-18T11:25:50.026Z,13.93
2023-04-18T11:28:21.232Z,13.86
2023-04-18T11:30:48.779Z,13.80
2023-04-18T11:33:16.413Z,13.75
2023-04-18T11:35:44.695Z,13.70
2023-04-18T11:38:12.661Z,13.65
2023-04-18T11:40:42.104Z,13.59
2023-04-18T11:43:09.394Z,13.54
2023-04-18T11:45:36.973Z,13.50
2023-04-18T11:48:04.890Z,13.47
2023-04-18T11:50:35.314Z,13.46
2023-04-18T11:53:02.772Z,13.41
2023-04-18T11:55:30.300Z,13.35
2023-04-18T11:57:58.241Z,13.30
2023-04-18T12:00:38.326Z,13.26
2023-04-18T12:03:11.822Z,13.22
2023-04-18T12:05:42.149Z,13.18
2023-04-18T12:08:10.982Z,13.18
2023-04-18T12:10:38.880Z,13.17
2023-04-18T12:13:08.043Z,13.14
2023-04-18T12:15:38.701Z,13.04
2023-04-18T12:18:08.153Z,12.94
2023-04-18T12:20:36.590Z,12.80
2023-04-18T12:23:04.032Z,12.66
2023-04-18T12:25:31.542Z,12.57
2023-04-18T12:28:00.128Z,12.48
2023-04-18T12:30:34.104Z,12.37
2023-04-18T12:33:02.890Z,12.28
2023-04-18T12:35:30.826Z,12.19
2023-04-18T12:37:59.265Z,12.11
2023-04-18T12:40:26.825Z,12.03
2023-04-18T12:42:54.298Z,11.95
2023-04-18T12:45:22.053Z,11.87
2023-04-18T12:47:49.870Z,11.78
2023-04-18T12:50:20.401Z,11.70
2023-04-18T12:52:47.830Z,11.60
2023-04-18T12:55:15.386Z,11.49
2023-04-18T12:57:43.047Z,11.39
2023-04-18T13:00:11.136Z,11.32
2023-04-18T13:02:43.444Z,11.23
2023-04-18T13:05:12.016Z,11.11
2023-04-18T13:07:42.729Z,11.01
2023-04-18T13:10:11.277Z,10.90
2023-04-18T13:12:39.258Z,10.78
2023-04-18T13:15:09.609Z,10.64
2023-04-18T13:17:37.920Z,10.50
2023-04-18T13:20:12.359Z,10.39
2023-04-18T13:22:40.220Z,10.28
2023-04-18T13:25:09.981Z,10.20
2023-04-18T13:27:39.617Z,10.13
2023-04-18T13:30:10.065Z,10.05
2023-04-18T13:32:38.797Z,9.99
2023-04-18T13:35:08.162Z,9.91
2023-04-18T13:37:38.832Z,9.83
2023-04-18T13:40:06.822Z,9.74
2023-04-18T13:42:35.538Z,9.68
2023-04-18T13:45:03.358Z,9.61
2023-04-18T13:47:31.460Z,9.56
2023-04-18T13:49:59.086Z,9.53
2023-04-18T13:52:26.520Z,9.49
2023-04-18T13:54:53.724Z,9.45
2023-04-18T13:57:21.733Z,9.41
2023-04-18T13:59:48.973Z,9.36
2023-04-18T14:02:16.359Z,9.33
2023-04-18T14:04:44.059Z,9.27
2023-04-18T14:07:11.537Z,9.23
2023-04-18T14:09:39.366Z,9.22
2023-04-18T14:12:06.902Z,9.21
2023-04-18T14:14:34.298Z,9.23
2023-04-18T14:17:01.528Z,9.26
2023-04-18T14:19:29.247Z,9.31
2023-04-18T14:21:56.839Z,9.36
2023-04-18T14:24:24.137Z,9.41
2023-04-18T14:26:51.359Z,9.47
2023-04-18T14:29:18.646Z,9.54
2023-04-18T14:31:46.112Z,9.62
2023-04-18T14:34:13.527Z,9.67
2023-04-18T14:36:40.844Z,9.74
2023-04-18T14:39:08.012Z,9.80
2023-04-18T14:41:35.543Z,9.86
2023-04-18T14:44:06.333Z,9.92
2023-04-18T14:46:34.269Z,9.96
2023-04-18T14:49:01.601Z,10.00
2023-04-18T14:51:29.168Z,10.03
2023-04-18T14:53:56.589Z,10.06
2023-04-18T14:56:23.971Z,10.08
2023-04-18T14:58:51.346Z,10.11
2023-04-18T15:01:18.690Z,10.13
2023-04-18T15:03:46.238Z,10.16
2023-04-18T15:06:14.326Z,10.20
2023-04-18T15:08:43.806Z,10.24
2023-04-18T15:11:11.145Z,10.28
2023-04-18T15:13:39.764Z,10.31
2023-04-18T15:16:07.490Z,10.35
2023-04-18T15:18:35.101Z,10.37
2023-04-18T15:21:02.556Z,10.39
2023-04-18T15:23:30.155Z,10.40
2023-04-18T15:25:58.867Z,10.40
2023-04-18T15:28:26.175Z,10.40
2023-04-18T15:30:53.658Z,10.39
2023-04-18T15:33:21.607Z,10.37
2023-04-18T15:35:48.879Z,10.35
2023-04-18T15:38:16.101Z,10.33
2023-04-18T15:40:44.444Z,10.30
2023-04-18T15:43:13.348Z,10.27
2023-04-18T15:45:40.643Z,10.24
2023-04-18T15:48:08.093Z,10.20
2023-04-18T15:50:36.189Z,10.17
2023-04-18T15:53:03.581Z,10.15
2023-04-18T15:55:32.656Z,10.12
2023-04-18T15:57:59.953Z,10.10
2023-04-18T16:00:27.255Z,10.07
2023-04-18T16:02:55.719Z,10.04
2023-04-18T16:05:23.300Z,10.01
2023-04-18T16:07:51.958Z,9.99
2023-04-18T16:10:19.344Z,9.96
2023-04-18T16:12:47.469Z,9.93
2023-04-18T16:15:15.020Z,9.90
2023-04-18T16:17:42.690Z,9.89
2023-04-18T16:20:10.464Z,9.86
2023-04-18T16:22:38.154Z,9.85
2023-04-18T16:25:05.939Z,9.84
2023-04-18T16:27:33.362Z,9.83
2023-04-18T16:30:00.709Z,9.81
2023-04-18T16:32:28.192Z,9.80
2023-04-18T16:34:55.880Z,9.79
2023-04-18T16:37:23.213Z,9.77
2023-04-18T16:39:50.868Z,9.76
2023-04-18T16:42:18.238Z,9.74
2023-04-18T16:44:45.562Z,9.73
2023-04-18T16:47:13.241Z,9.71
2023-04-18T16:49:41.057Z,9.70
2023-04-18T16:52:08.829Z,9.68
2023-04-18T16:54:36.481Z,9.67
2023-04-18T16:57:04.535Z,9.65
2023-04-18T16:59:32.697Z,9.63
2023-04-18T17:02:00.217Z,9.62
2023-04-18T17:04:28.722Z,9.61
2023-04-18T17:06:56.294Z,9.58
2023-04-18T17:09:24.034Z,9.56
2023-04-18T17:11:51.347Z,9.56
2023-04-18T17:14:18.705Z,9.54
2023-04-18T17:16:46.267Z,9.52
2023-04-18T17:19:14.789Z,9.50
2023-04-18T17:21:43.740Z,9.47
2023-04-18T17:24:11.285Z,9.44
2023-04-18T17:26:39.239Z,9.41
2023-04-18T17:29:06.480Z,9.39
2023-04-18T17:31:34.131Z,9.35
2023-04-18T17:34:03.245Z,9.33
2023-04-18T17:36:30.839Z,9.30
2023-04-18T17:39:05.252Z,9.28
2023-04-18T17:41:39.059Z,9.27
2023-04-18T17:44:10.091Z,9.26
2023-04-18T17:46:37.528Z,9.27
2023-04-18T17:49:05.046Z,9.28
2023-04-18T17:51:32.556Z,9.29
2023-04-18T17:53:59.943Z,9.28
2023-04-18T17:56:27.201Z,9.28
2023-04-18T17:58:56.544Z,9.26
2023-04-18T18:01:26.153Z,9.24
2023-04-18T18:03:54.110Z,9.22
2023-04-18T18:06:22.156Z,9.19
2023-04-18T18:08:49.594Z,9.16
2023-04-18T18:11:17.066Z,9.14
2023-04-18T18:13:46.648Z,9.11
2023-04-18T18:16:14.101Z,9.09
2023-04-18T18:18:41.499Z,9.06
2023-04-18T18:21:08.832Z,9.03
2023-04-18T18:23:36.419Z,9.00
2023-04-18T18:26:06.228Z,8.97
2023-04-18T18:28:34.040Z,8.95
2023-04-18T18:31:01.642Z,8.95
2023-04-18T18:33:29.321Z,8.95
2023-04-18T18:35:58.532Z,8.97
2023-04-18T18:38:26.253Z,9.00
2023-04-18T18:40:53.871Z,9.06
2023-04-18T18:43:22.605Z,9.10
2023-04-18T18:45:50.000Z,9.13
2023-04-18T18:48:17.450Z,9.16
2023-04-18T18:50:44.818Z,9.19
2023-04-18T18:53:12.153Z,9.22
2023-04-18T18:55:39.900Z,9.26
2023-04-18T18:58:07.702Z,9.30
2023-04-18T19:00:35.214Z,9.32
2023-04-18T19:03:02.700Z,9.34
2023-04-18T19:05:30.618Z,9.35
2023-04-18T19:07:58.302Z,9.36
2023-04-18T19:10:26.359Z,9.36
2023-04-18T19:12:53.710Z,9.36
2023-04-18T19:15:21.021Z,9.37
2023-04-18T19:17:48.584Z,9.37
2023-04-18T19:20:16.162Z,9.36
2023-04-18T19:22:43.491Z,9.35
2023-04-18T19:25:10.734Z,9.35
2023-04-18T19:27:38.440Z,9.35
2023-04-18T19:30:06.046Z,9.36
2023-04-18T19:32:34.040Z,9.36
2023-04-18T19:35:01.448Z,9.35
2023-04-18T19:37:29.242Z,9.34
2023-04-18T19:39:56.602Z,9.34
2023-04-18T19:42:23.936Z,9.34
2023-04-18T19:44:51.620Z,9.34
2023-04-18T19:47:19.030Z,9.34
2023-04-18T19:49:46.442Z,9.34
2023-04-18T19:52:13.672Z,9.33
2023-04-18T19:54:41.383Z,9.32
2023-04-18T19:57:08.749Z,9.32
2023-04-18T19:59:36.604Z,9.31
2023-04-18T20:02:06.068Z,9.31
2023-04-18T20:04:36.354Z,9.30
2023-04-18T20:07:04.006Z,9.29
2023-04-18T20:09:31.417Z,9.27
2023-04-18T20:12:00.159Z,9.26
2023-04-18T20:14:28.368Z,9.25
2023-04-18T20:16:55.885Z,9.25
2023-04-18T20:19:25.409Z,9.25
2023-04-18T20:21:52.785Z,9.26
2023-04-18T20:24:20.787Z,9.26
2023-04-18T20:26:48.032Z,9.27
2023-04-18T20:29:16.331Z,9.28
2023-04-18T20:31:43.887Z,9.28
2023-04-18T20:34:11.315Z,9.30
2023-04-18T20:36:41.370Z,9.31
2023-04-18T20:39:08.877Z,9.31
2023-04-18T20:41:36.726Z,9.31
2023-04-18T20:44:08.844Z,9.27
2023-04-18T20:46:36.351Z,9.24
2023-04-18T20:49:03.865Z,9.19
2023-04-18T20:51:31.603Z,9.15
2023-04-18T20:53:58.943Z,9.11
2023-04-18T20:56:26.157Z,9.06
2023-04-18T20:58:53.525Z,9.01
2023-04-18T21:01:21.211Z,8.95
2023-04-18T21:03:48.613Z,8.90
2023-04-18T21:06:18.802Z,8.85
2023-04-18T21:08:46.224Z,8.80
2023-04-18T21:11:13.816Z,8.77
2023-04-18T21:13:41.060Z,8.73
2023-04-18T21:16:09.828Z,8.71
2023-04-18T21:18:37.236Z,8.69
2023-04-18T21:21:04.519Z,8.67
2023-04-18T21:23:31.821Z,8.65
2023-04-18T21:25:59.301Z,8.63
2023-04-18T21:28:26.530Z,8.63
2023-04-18T21:30:54.305Z,8.62
2023-04-18T21:33:22.891Z,8.61
2023-04-18T21:35:50.127Z,8.59
2023-04-18T21:38:17.552Z,8.57
2023-04-18T21:40:45.080Z,8.55
2023-04-18T21:43:12.366Z,8.52
2023-04-18T21:45:39.609Z,8.50
2023-04-18T21:48:08.504Z,8.46
2023-04-18T21:50:35.841Z,8.43
2023-04-18T21:53:03.130Z,8.40
2023-04-18T21:55:30.532Z,8.36
2023-04-18T21:57:57.801Z,8.34
2023-04-18T22:00:25.312Z,8.31
2023-04-18T22:02:52.843Z,8.29
2023-04-18T22:05:20.577Z,8.28
2023-04-18T22:07:57.393Z,8.26
2023-04-18T22:10:25.601Z,8.25
2023-04-18T22:12:56.026Z,8.24
2023-04-18T22:15:24.159Z,8.22
2023-04-18T22:17:51.451Z,8.20
2023-04-18T22:20:18.749Z,8.17
2023-04-18T22:22:46.298Z,8.14
2023-04-18T22:25:13.601Z,8.11
2023-04-18T22:27:42.302Z,8.09
2023-04-18T22:30:09.758Z,8.06
2023-04-18T22:32:37.450Z,8.03
2023-04-18T22:35:05.250Z,8.01
2023-04-18T22:37:32.793Z,7.99
2023-04-18T22:40:00.194Z,7.98
2023-04-18T22:42:28.768Z,7.97
2023-04-18T22:45:00.115Z,7.96
2023-04-18T22:47:27.569Z,7.94
2023-04-18T22:49:54.930Z,7.94
2023-04-18T22:52:24.954Z,7.93
2023-04-18T22:54:52.312Z,7.93
2023-04-18T22:57:19.502Z,7.92
2023-04-18T22:59:46.779Z,7.92
2023-04-18T23:02:14.299Z,7.91
2023-04-18T23:04:42.037Z,7.89
2023-04-18T23:07:09.644Z,7.88
2023-04-18T23:09:36.943Z,7.86
2023-04-18T23:12:05.427Z,7.84
2023-04-18T23:14:34.303Z,7.82
2023-04-18T23:17:02.223Z,7.80
2023-04-18T23:19:29.722Z,7.76
2023-04-18T23:21:57.279Z,7.73
2023-04-18T23:24:24.480Z,7.69
2023-04-18T23:26:51.643Z,7.64
2023-04-18T23:29:18.999Z,7.59
2023-04-18T23:31:46.339Z,7.56
2023-04-18T23:34:13.860Z,7.52
2023-04-18T23:36:42.011Z,7.48
2023-04-18T23:39:09.393Z,7.45
2023-04-18T23:41:36.533Z,7.43
2023-04-18T23:44:04.132Z,7.40
2023-04-18T23:46:31.750Z,7.36
2023-04-18T23:48:59.818Z,7.31
2023-04-18T23:51:27.725Z,7.25
2023-04-18T23:53:55.297Z,7.21
2023-04-18T23:56:23.023Z,7.15
2023-04-18T23:58:50.820Z,7.08
